• Join FlightAware (Why Join?)
  • Login
  • US Flag 
12:27AM EDT


 

Airport Tracker/Info


-or-


 

Live Flight TrackerFlight Track Log ✈ UCA3598 ✈ 25-Sep-2013 ✈ KIAD - KBGM

Flight Track Log - Related Links

Times and Time Zones

All times are in EDT time to prevent confusion due to time zone crossing. See the UCA3598 flight status page for this flight to view local times or setup timezone preferences in your user account.

Time Position Orientation Groundspeed Altitude Reporting Facility
EDT Latitude Longitude Course Direction KTS MPH feet Rate Location/Type
10:20PM 39.0000 -77.4667 344° North 159 183 2,500  Level Potomac TRACON
10:21PM 39.0333 -77.5000 322° Northwest 181 208 3,700 1,320 Climbing Potomac TRACON
10:24PM 39.1458 -77.5319 348° North 188 216 7,000 1,320 Climbing Washington Center
10:25PM 39.3508 -77.2849 North  Level Estimated
10:25PM 39.1981 -77.5225 North 183 211 8,300  Level Washington Center
10:26PM 39.4128 -77.3085 344° North  Level FlightAware Approximate
10:26PM 39.2525 -77.5161 North 183 211 9,700  Level Washington Center
10:27PM 39.3089 -77.5067 North 183 211 10,900 1,200 Climbing Washington Center
10:28PM 39.3631 -77.4975 North 189 217 12,200 1,200 Climbing Washington Center
10:30PM 39.5014 -77.4792 North 214 246 15,100 1,140 Climbing New York Center
10:31PM 39.5583 -77.4711 North 209 241 16,200 1,080 Climbing New York Center
10:32PM 39.6153 -77.4575 10° North 204 235 17,300 1,080 Climbing New York Center
10:33PM 39.6803 -77.4531 North 204 235 18,400 840 Climbing New York Center
10:34PM 39.7325 -77.4525 360° North 204 235 19,000 240 Climbing New York Center
10:35PM 39.8097 -77.4517 360° North 229 264 19,000  Level New York Center
10:36PM 39.8744 -77.4472 North 257 296 19,000  Level New York Center
10:37PM 39.9503 -77.3975 27° Northeast 257 296 19,000  Level New York Center
10:38PM 40.0111 -77.3544 28° Northeast 269 310 19,000  Level New York Center
10:39PM 40.0869 -77.3044 27° Northeast 274 315 19,000  Level New York Center
10:40PM 40.1472 -77.2669 25° Northeast 274 315 19,000  Level New York Center
10:41PM 40.2208 -77.2167 28° Northeast 274 315 19,000  Level New York Center
10:42PM 40.2836 -77.1733 28° Northeast 274 315 19,000  Level New York Center
10:43PM 40.3572 -77.1231 27° Northeast 274 315 19,000  Level New York Center
10:44PM 40.4181 -77.0794 29° Northeast 274 315 19,000  Level New York Center
10:45PM 40.4956 -77.0319 25° Northeast 274 315 19,000  Level New York Center
10:46PM 40.5542 -76.9908 28° Northeast 274 315 19,000 -240 Level New York Center
10:47PM 40.6297 -76.9375 28° Northeast 269 310 18,600 -540 Descending New York Center
10:48PM 40.6947 -76.8942 27° Northeast 275 316 18,000 -720 Descending New York Center
10:49PM 40.7747 -76.8356 29° Northeast 280 322 17,200 -780 Descending New York Center
10:50PM 40.8483 -76.7844 28° Northeast 285 328 16,500 -660 Descending New York Center
10:51PM 40.9150 -76.7408 26° Northeast 295 339 15,900 -660 Descending New York Center
10:52PM 40.9842 -76.6892 29° Northeast 295 339 15,200 -720 Descending New York Center
10:53PM 41.0578 -76.6350 29° Northeast 295 339 14,500 -780 Descending New York Center
10:54PM 41.1375 -76.5842 26° Northeast 295 339 13,700 -780 Descending New York Center
10:55PM 41.2086 -76.5322 29° Northeast 295 339 13,000 -360 Descending New York Center
10:56PM 41.2756 -76.4856 28° Northeast 290 334 13,000  Level New York Center
10:57PM 41.3339 -76.4433 29° Northeast 270 311 13,000  Level New York Center
10:58PM 41.3961 -76.4017 27° Northeast 265 305 13,000  Level New York Center
10:59PM 41.4653 -76.3522 28° Northeast 260 299 13,000  Level New York Center
11:00PM 41.5278 -76.3075 28° Northeast 254 292 13,000 -180 Level New York Center
11:01PM 41.5903 -76.2628 28° Northeast 254 292 12,700 -780 Descending New York Center
11:02PM 41.6506 -76.2206 28° Northeast 259 298 11,500 -1,320 Descending New York Center
11:03PM 41.7236 -76.1681 28° Northeast 264 304 10,200 -1,260 Descending New York Center
11:04PM 41.7925 -76.1208 27° Northeast 271 312 9,000 -1,380 Descending New York Center
11:05PM 41.8511 -76.0669 34° Northeast 265 305 7,500 -1,560 Descending New York Center
11:06PM 41.9031 -76.0211 33° Northeast 252 290 5,900 -1,500 Descending New York Center
11:07PM 41.9669 -75.9897 20° North 241 277 4,500 -960 Descending New York Center
11:08PM 42.0367 -75.9644 15° North 236 272 4,000 -300 Descending New York Center
11:09PM 42.0850 -75.9544 North 220 253 4,000 -480 Level New York Center
11:10PM 42.1233 -75.9378 18° North 179 206 3,100 -720 Descending New York Center
11:11PM 42.1564 -75.9403 357° North 137 158 2,600 -600 Descending New York Center
11:12PM 42.1828 -75.9592 332° Northwest 110 127 2,000 5,100 Descending New York Center
11:13PM 42.2200 -75.9622 357° North 110 127 13,000 5,400 Climbing New York Center
11:14PM 42.2508 -75.9703 349° North 110 127 13,000  Level New York Center
11:15PM 42.2817 -75.9811 345° North 110 127 13,000  Level New York Center